Weather observations for the past three days for
Sand Point
| Date | Time (akdt) | Wind (kph) | Vis. (km) | Weather | Sky Cond. | Temperature (ºC) | Relative Humidity | Wind Chill (°C) | Heat Index (°C) | Pressure | Precipitation (cm) | ||||||
|---|---|---|---|---|---|---|---|---|---|---|---|---|---|---|---|---|---|
| Air | Dwpt | 6 hour | altimeter (cm) | sea level (mb) | 1 hr | 3 hr | 6 hr | ||||||||||
| Max. | Min. | ||||||||||||||||
| 08 | 18:56 | N 24 | 16.09 | A Few Clouds | FEW030 | 5.6 | -1.1 | 62% | 2 | 75.23 | 1003.3 | ||||||
| 08 | 17:56 | N 20 | 16.09 | A Few Clouds | FEW030 FEW038 | 5.6 | -0.6 | 65% | 2 | 75.26 | 1003.6 | ||||||
| 08 | 16:56 | N 20 | 16.09 | Partly Cloudy | FEW030 SCT038 | 5.6 | 0.6 | 71% | 2 | 75.31 | 1004.1 | ||||||
| 08 | 15:56 | NE 19 | 16.09 | Mostly Cloudy | FEW030 SCT038 BKN045 | 6.1 | 0.6 | 6.1 | 3.3 | 68% | 3 | 75.34 | 1004.6 | ||||
| 08 | 14:56 | NE 20 | 16.09 | Partly Cloudy | FEW033 SCT040 | 5.6 | 0.6 | 71% | 2 | 75.36 | 1005.0 | ||||||
| 08 | 13:56 | NE 19 | 16.09 | Partly Cloudy | FEW037 SCT050 | 5 | 0 | 70% | 2 | 75.41 | 1005.4 | ||||||
| 08 | 12:56 | N 17 | 16.09 | Partly Cloudy | FEW035 SCT060 | 5 | 0 | 70% | 2 | 75.44 | 1006.0 | ||||||
| 08 | 11:56 | N 19 | 16.09 | Partly Cloudy | FEW030 SCT037 | 4.4 | -1.1 | 68% | 1 | 75.49 | 1006.6 | ||||||
| 08 | 10:56 | N 15 | 16.09 | Partly Cloudy | FEW037 SCT055 | 4.4 | -1.1 | 68% | 1 | 75.51 | 1007.0 | ||||||
| 08 | 09:56 | N 15 | 16.09 | A Few Clouds | FEW028 FEW050 | 3.3 | -1.1 | 3.3 | 1.1 | 73% | 0 | 75.54 | 1007.3 | ||||
| 08 | 08:56 | N 19 | 16.09 | A Few Clouds | FEW021 FEW045 | 2.8 | -1.1 | 76% | -1 | 75.57 | 1007.6 | ||||||
| 08 | 07:56 | N 15 | 16.09 | A Few Clouds | FEW021 FEW045 | 1.1 | -1.1 | 85% | -3 | 75.59 | 1007.9 | ||||||
| 08 | 06:56 | N 15 | 16.09 | Partly Cloudy | FEW022 SCT050 | 1.1 | -1.1 | 85% | -3 | 75.59 | 1008.1 | ||||||
| 08 | 05:56 | N 15 | 16.09 | Mostly Cloudy | BKN029 | 1.7 | -1.1 | 82% | -2 | 75.64 | 1008.7 | ||||||
| 08 | 04:56 | N 15 | 16.09 | Overcast | FEW016 OVC027 | 2.2 | -0.6 | 82% | -1 | 75.67 | 1009.1 | ||||||
| 08 | 03:56 | N 15 | 16.09 | Overcast | BKN020 OVC028 | 2.2 | -0.6 | 3.3 | 1.7 | 82% | -1 | 75.72 | 1009.6 | ||||
| 08 | 02:56 | N 13 | 16.09 | Overcast | BKN016 OVC024 | 2.8 | 0 | 82% | -0 | 75.77 | 1010.2 | ||||||
| 08 | 01:56 | Calm | 16.09 | Overcast | OVC020 | 2.2 | -0.6 | 82% | 75.77 | 1010.5 | |||||||
| 08 | 00:56 | Calm | 16.09 | Overcast | SCT020 OVC030 | 1.7 | -1.1 | 82% | 75.82 | 1011.0 | |||||||
| 07 | 23:56 | Calm | 16.09 | Overcast | OVC030 | 2.8 | -1.1 | 76% | 75.84 | 1011.4 | |||||||
| 07 | 22:56 | Calm | 16.09 | Overcast | OVC024 | 2.8 | -1.7 | 73% | 75.87 | 1011.8 | |||||||
| 07 | 21:56 | Vrbl 6 | 16.09 | Overcast | OVC022 | 3.3 | -1.7 | 5 | 3.3 | 70% | 75.87 | 1011.8 | |||||
| 07 | 20:56 | NE 6 | 16.09 | A Few Clouds | FEW024 | 3.9 | -1.7 | 67% | 75.9 | 1011.9 | |||||||
| 07 | 19:56 | N 9 | 16.09 | Fair | CLR | 3.9 | -1.7 | 67% | 2 | 75.9 | 1011.9 | ||||||
| 07 | 18:56 | Vrbl 9 | 16.09 | A Few Clouds | FEW048 FEW060 | 4.4 | -1.7 | 65% | 2 | 75.92 | 1012.3 | ||||||
| 07 | 17:56 | N 15 | 16.09 | A Few Clouds | FEW048 FEW060 | 5 | -1.7 | 62% | 2 | 75.95 | 1012.8 | ||||||
| 07 | 16:56 | NE 15 | 16.09 | A Few Clouds | FEW035 FEW060 | 5 | -2.2 | 60% | 2 | 76 | 1013.5 | ||||||
| 07 | 15:56 | Vrbl 7 | 16.09 | Mostly Cloudy | FEW027 SCT032 BKN045 | 3.9 | -2.8 | 5.6 | 2.8 | 62% | 2 | 76.07 | 1014.3 | ||||
| 07 | 14:56 | N 9 | 16.09 | Mostly Cloudy | FEW027 SCT032 BKN040 | 4.4 | -2.8 | 60% | 2 | 76.1 | 1014.7 | ||||||
| 07 | 13:56 | Vrbl 11 | 16.09 | Mostly Cloudy | FEW026 SCT032 BKN040 | 4.4 | -2.2 | 63% | 2 | 76.12 | 1015.1 | ||||||
| 07 | 12:56 | NE 17 | 16.09 | Mostly Cloudy | FEW024 SCT029 BKN035 | 3.3 | -2.2 | 68% | -0 | 76.15 | 1015.3 | ||||||
| 07 | 11:56 | NE 15 | 16.09 | Mostly Cloudy | SCT025 BKN032 | 3.9 | -2.2 | 65% | 1 | 76.15 | 1015.5 | ||||||
| 07 | 10:56 | N 15 | 16.09 | Mostly Cloudy | SCT023 BKN030 | 2.8 | -2.8 | 67% | -1 | 76.17 | 1015.8 | ||||||
| 07 | 09:56 | Vrbl 11 | 16.09 | Mostly Cloudy | SCT022 BKN029 | 2.8 | -1.7 | 2.8 | -0.6 | 73% | 0 | 76.2 | 1016.1 | ||||
| 07 | 08:56 | Calm | 16.09 | Mostly Cloudy | SCT020 BKN025 | 2.2 | -1.7 | 76% | 76.23 | 1016.5 | |||||||
| 07 | 07:56 | Calm | 16.09 | Mostly Cloudy | SCT020 BKN027 | 1.1 | -2.2 | 79% | 76.25 | 1016.7 | |||||||
| 07 | 06:56 | Calm | 16.09 | Mostly Cloudy | SCT019 BKN024 | 0.6 | -2.2 | 82% | 76.25 | 1016.9 | |||||||
| 07 | 05:56 | E 6 | 16.09 | Overcast | OVC019 | 0.6 | -2.2 | 82% | 76.28 | 1017.2 | |||||||
| 07 | 04:56 | Calm | 16.09 | Overcast | OVC019 | 0 | -2.2 | 85% | 76.3 | 1017.4 | |||||||
| 07 | 03:56 | Calm | 16.09 | A Few Clouds | FEW021 | -0.6 | -2.2 | 2.8 | -1.1 | 89% | 76.33 | 1017.8 | |||||
| 07 | 02:56 | Calm | 16.09 | Fair | CLR | -1.1 | -2.2 | 92% | 76.35 | 1018.3 | |||||||
| 07 | 01:56 | Calm | 16.09 | Fair | CLR | -0.6 | -2.2 | 89% | 76.38 | 1018.5 | |||||||
| 07 | 00:56 | E 6 | 16.09 | Fair | CLR | 0 | -2.2 | 85% | 76.4 | 1018.8 | |||||||
| 06 | 23:56 | E 9 | 16.09 | Fair | CLR | 0 | -2.8 | 82% | -3 | 76.38 | 1018.6 | ||||||
| 06 | 22:56 | E 7 | 16.09 | Fair | CLR | 1.1 | -2.8 | 76% | -1 | 76.4 | 1018.7 | ||||||
| 06 | 21:56 | Vrbl 7 | 16.09 | Fair | CLR | 2.8 | -2.8 | 5 | 2.8 | 67% | 1 | 76.38 | 1018.6 | ||||
| 06 | 20:56 | S 15 | 16.09 | Fair | CLR | 3.3 | -2.2 | 68% | 0 | 76.38 | 1018.6 | ||||||
| 06 | 19:56 | S 17 | 16.09 | Fair | CLR | 3.9 | -1.7 | 67% | 0 | 76.38 | 1018.4 | ||||||
| 06 | 18:56 | S 19 | 16.09 | A Few Clouds | FEW100 FEW120 | 4.4 | -2.2 | 63% | 1 | 76.38 | 1018.3 | ||||||
| 06 | 17:56 | S 17 | 16.09 | A Few Clouds | FEW100 FEW120 | 5 | -2.8 | 57% | 2 | 76.38 | 1018.6 | ||||||
| 06 | 16:56 | S 19 | 16.09 | A Few Clouds | FEW100 FEW120 | 4.4 | -3.9 | 55% | 1 | 76.4 | 1018.9 | ||||||
| 06 | 15:56 | S 22 | 16.09 | A Few Clouds | FEW100 FEW120 | 3.9 | -3.3 | 5 | 0.6 | 60% | -0 | 76.43 | 1019.1 | ||||
| 06 | 14:56 | S 20 | 16.09 | Partly Cloudy | SCT100 SCT120 | 3.9 | -2.8 | 62% | 0 | 76.45 | 1019.5 | ||||||
| 06 | 13:56 | S 17 | 16.09 | Partly Cloudy | SCT100 SCT120 | 3.9 | -3.3 | 60% | 0 | 76.48 | 1019.8 | ||||||
| 06 | 12:56 | Vrbl 6 | 16.09 | Partly Cloudy | SCT100 SCT120 | 3.9 | -4.4 | 55% | 76.48 | 1019.9 | |||||||
| 06 | 11:56 | N 7 | 16.09 | A Few Clouds | FEW100 FEW120 | 2.2 | -5.6 | 57% | 0 | 76.48 | 1019.7 | ||||||
| 06 | 10:56 | N 11 | 16.09 | A Few Clouds | FEW100 FEW120 | 1.7 | -4.4 | 64% | -1 | 76.48 | 1019.8 | ||||||
| 06 | 09:56 | NW 7 | 16.09 | A Few Clouds | FEW100 FEW120 | 1.1 | -5 | 1.1 | -2.8 | 64% | -1 | 76.48 | 1020.0 | ||||
| 06 | 08:56 | W 13 | 16.09 | A Few Clouds | FEW080 FEW110 | 0 | -3.9 | 75% | -4 | 76.5 | 1020.0 | ||||||
| 06 | 07:56 | Calm | 16.09 | A Few Clouds | FEW080 FEW110 | -2.2 | -5 | 81% | 76.48 | 1019.8 | |||||||
| 06 | 06:56 | NW 7 | 16.09 | Fair | CLR | -1.1 | -4.4 | 79% | -3 | 76.45 | 1019.6 | ||||||
| 06 | 05:56 | N 11 | 16.09 | Fair | CLR | -0.6 | -4.4 | 76% | -4 | 76.45 | 1019.4 | ||||||
| 06 | 04:56 | N 20 | 16.09 | Fair | CLR | 0 | -3.9 | 75% | -5 | 76.43 | 1019.1 | ||||||
| 06 | 03:56 | NW 22 | 16.09 | Fair | CLR | -0.6 | -3.9 | 1.1 | -1.1 | 79% | -6 | 76.43 | 1019.3 | ||||
| 06 | 02:56 | N 17 | 16.09 | Fair | CLR | -0.6 | -3.9 | 79% | -5 | 76.48 | 1019.9 | ||||||
| 06 | 01:56 | N 17 | 16.09 | Fair | CLR | -0.6 | -3.9 | 79% | -5 | 76.5 | 1020.3 | ||||||
| 06 | 00:56 | NW 24 | 16.09 | Fair | CLR | 0 | -3.3 | 79% | -5 | 76.48 | 1020.0 | ||||||
| 05 | 23:56 | NW 9 | 16.09 | Partly Cloudy | SCT022 | 0 | -3.3 | 79% | -3 | 76.5 | 1020.0 | ||||||
| 05 | 22:56 | NW 24 G 33 | 16.09 | Partly Cloudy | SCT019 | 0.6 | -3.3 | 75% | -5 | 76.45 | 1019.5 | ||||||
| 05 | 21:56 | NW 39 | 16.09 | Fair and Breezy | CLR | 1.1 | -2.8 | 4.4 | 1.1 | 76% | -5 | 76.38 | 1018.4 | ||||
| 05 | 20:56 | N 31 | 16.09 | A Few Clouds | FEW018 | 2.2 | -2.2 | 73% | -3 | 76.38 | 1018.4 | ||||||
| 05 | 19:56 | N 24 | 16.09 | Partly Cloudy | SCT019 | 2.8 | -1.7 | 73% | -2 | 76.35 | 1018.1 | ||||||
| Date | Time (akdt) | Wind (kph) | Vis. (km) | Weather | Sky Cond. | Air | Dwpt | Max. | Min. | Relative Humidity | Wind Chill (°C) | Heat Index (°C) | altimeter (cm) | sea level (mb) | 1 hr | 3 hr | 6 hr |
| 6 hour | |||||||||||||||||
| Temperature (ºC) | Pressure | Precipitation (cm) | |||||||||||||||